Time;durP1;ratioP1;P1;durP2;ratioP2;P2;SDS_P1;SDS_P2;PMS_P1;PMS_P2;Temp;Humidity;BMP_temperature;BMP_pressure;BME280_temperature;BME280_humidity;BME280_pressure;Samples;Min_cycle;Max_cycle;Signal;HPM_P1;HPM_P2
2022/07/08 00:00:28;;;;;;;6.55;3.80;;;;;;;13.83;100.00;96733.16;1038144;28;20029;-71
2022/07/08 00:00:58;;;;;;;5.85;3.50;;;;;;;13.82;100.00;96736.84;1034063;28;20049;-70
2022/07/08 00:01:29;;;;;;;5.03;3.53;;;;;;;13.83;100.00;96730.50;1029994;28;20034;-71
2022/07/08 00:01:59;;;;;;;7.05;3.60;;;;;;;13.83;100.00;96735.78;1025329;28;20086;-71
2022/07/08 00:02:30;;;;;;;6.03;3.50;;;;;;;13.82;100.00;96734.22;1026245;28;20053;-71
2022/07/08 00:03:01;;;;;;;5.80;4.03;;;;;;;13.84;100.00;96739.22;1030278;28;20121;-71
2022/07/08 00:03:31;;;;;;;6.05;3.22;;;;;;;13.81;100.00;96729.97;1038378;28;20880;-72
2022/07/08 00:04:02;;;;;;;4.82;3.45;;;;;;;13.81;100.00;96737.88;1038113;28;20029;-72
2022/07/08 00:04:33;;;;;;;5.30;3.38;;;;;;;13.82;100.00;96728.94;1034050;28;20087;-71
2022/07/08 00:05:04;;;;;;;3.60;3.30;;;;;;;13.84;100.00;96729.44;1028371;28;20022;-71
2022/07/08 00:05:34;;;;;;;3.65;3.20;;;;;;;13.86;100.00;96735.28;1030293;28;20038;-71
2022/07/08 00:06:04;;;;;;;4.78;3.40;;;;;;;13.88;100.00;96733.19;1030262;28;20494;-71
2022/07/08 00:06:35;;;;;;;5.32;3.35;;;;;;;13.86;100.00;96730.00;1033713;28;20044;-70
2022/07/08 00:07:05;;;;;;;5.70;3.85;;;;;;;13.83;100.00;96730.50;1034091;28;20541;-72
2022/07/08 00:07:36;;;;;;;4.55;3.20;;;;;;;13.82;100.00;96734.22;1029583;28;20029;-71
2022/07/08 00:08:06;;;;;;;9.05;4.18;;;;;;;13.84;100.00;96734.72;1029192;28;20558;-71
2022/07/08 00:08:37;;;;;;;3.88;3.20;;;;;;;13.85;100.00;96736.34;1025715;28;20858;-71
2022/07/08 00:09:10;;;;;;;4.82;3.22;;;;;;;13.82;100.00;96731.56;1027648;28;20038;-70
2022/07/08 00:09:40;;;;;;;3.40;3.10;;;;;;;13.81;100.00;96740.53;1029760;28;20042;-72
2022/07/08 00:10:11;;;;;;;5.95;4.20;;;;;;;13.79;100.00;96739.22;1025736;28;20398;-72
2022/07/08 00:10:41;;;;;;;6.55;3.15;;;;;;;13.78;100.00;96738.44;1021931;29;20012;-71
2022/07/08 00:11:12;;;;;;;8.10;4.15;;;;;;;13.80;100.00;96731.03;1033903;28;20029;-72
2022/07/08 00:11:42;;;;;;;4.07;3.67;;;;;;;13.79;100.00;96732.09;1033524;28;20064;-71
2022/07/08 00:12:13;;;;;;;4.32;3.42;;;;;;;13.79;100.00;96731.31;1029984;28;20497;-71
2022/07/08 00:12:43;;;;;;;8.23;3.97;;;;;;;13.81;100.00;96732.59;1029924;28;20015;-71
2022/07/08 00:13:14;;;;;;;3.90;3.42;;;;;;;13.79;100.00;96724.19;1030102;28;20076;-72
2022/07/08 00:13:44;;;;;;;5.05;3.58;;;;;;;13.81;100.00;96729.19;1029864;28;20053;-71
2022/07/08 00:14:15;;;;;;;5.75;3.75;;;;;;;13.72;100.00;96723.63;1032205;28;20062;-71
2022/07/08 00:14:45;;;;;;;8.30;3.75;;;;;;;13.79;100.00;96729.44;1029609;28;20050;-70
2022/07/08 00:15:16;;;;;;;4.32;3.15;;;;;;;13.76;100.00;96722.06;1025364;28;20031;-71
2022/07/08 00:15:46;;;;;;;3.63;3.30;;;;;;;13.78;100.00;96727.88;1018437;29;20047;-71
2022/07/08 00:16:17;;;;;;;5.50;3.90;;;;;;;13.80;100.00;96731.03;1021581;29;20081;-72
2022/07/08 00:16:47;;;;;;;5.10;3.95;;;;;;;13.81;100.00;96727.31;1021947;28;20510;-69
2022/07/08 00:17:18;;;;;;;3.78;3.38;;;;;;;13.77;100.00;96723.63;1022445;28;20046;-72
2022/07/08 00:17:48;;;;;;;6.88;3.60;;;;;;;13.78;100.00;96729.69;1025464;28;20066;-73
2022/07/08 00:18:19;;;;;;;6.47;3.65;;;;;;;13.74;100.00;96731.25;1022883;28;20031;-71
2022/07/08 00:18:49;;;;;;;5.30;3.58;;;;;;;13.74;100.00;96729.41;1022011;28;20141;-72
2022/07/08 00:19:20;;;;;;;4.68;3.80;;;;;;;13.76;100.00;96732.59;1023842;28;20055;-71
2022/07/08 00:19:50;;;;;;;4.55;3.30;;;;;;;13.76;100.00;96729.19;1028006;28;20018;-71
2022/07/08 00:20:21;;;;;;;5.07;3.65;;;;;;;13.76;100.00;96722.06;1029979;28;20022;-70
2022/07/08 00:20:51;;;;;;;6.47;3.30;;;;;;;13.79;100.00;96726.03;1034999;28;20037;-72
2022/07/08 00:21:22;;;;;;;7.35;3.20;;;;;;;13.76;100.00;96716.00;1037946;28;20026;-71
2022/07/08 00:21:52;;;;;;;8.05;3.60;;;;;;;13.79;100.00;96720.75;1025538;28;20023;-72
2022/07/08 00:22:23;;;;;;;4.68;3.90;;;;;;;13.77;100.00;96723.63;1026271;28;20541;-72
2022/07/08 00:22:53;;;;;;;5.68;3.38;;;;;;;13.74;100.00;96724.13;1022360;29;20035;-71
2022/07/08 00:23:24;;;;;;;5.82;3.75;;;;;;;13.76;100.00;96726.53;1026008;28;20113;-71
2022/07/08 00:23:54;;;;;;;5.45;3.70;;;;;;;13.74;100.00;96726.78;1025294;28;20041;-72
2022/07/08 00:24:25;;;;;;;4.30;3.40;;;;;;;13.75;100.00;96730.22;1022483;28;20454;-72
2022/07/08 00:24:55;;;;;;;5.82;3.42;;;;;;;13.76;100.00;96726.53;1026266;28;20063;-71
2022/07/08 00:25:25;;;;;;;5.35;3.58;;;;;;;13.73;100.00;96721.78;1023706;28;20047;-71
2022/07/08 00:25:56;;;;;;;4.78;3.47;;;;;;;13.72;100.00;96726.25;1022134;29;20035;-71
2022/07/08 00:26:26;;;;;;;6.00;3.22;;;;;;;13.74;100.00;96728.63;1022021;29;20046;-72
2022/07/08 00:26:57;;;;;;;20.45;4.00;;;;;;;13.73;100.00;96725.19;1021907;29;20041;-71
2022/07/08 00:27:27;;;;;;;4.18;3.30;;;;;;;13.74;100.00;96718.06;1022382;28;20564;-71
2022/07/08 00:27:58;;;;;;;6.53;3.28;;;;;;;13.70;100.00;96717.00;1030081;28;20076;-71
2022/07/08 00:28:28;;;;;;;4.22;3.55;;;;;;;13.74;100.00;96729.41;1026354;28;20037;-71
2022/07/08 00:28:59;;;;;;;4.78;3.40;;;;;;;13.75;100.00;96725.75;1025039;28;20849;-72
2022/07/08 00:29:29;;;;;;;4.60;3.20;;;;;;;13.72;100.00;96728.09;1026027;28;20023;-71
2022/07/08 00:30:00;;;;;;;8.55;3.63;;;;;;;13.69;100.00;96724.13;1026359;28;20033;-72
2022/07/08 00:30:31;;;;;;;5.68;3.75;;;;;;;13.72;100.00;96726.25;1030041;28;20026;-71
2022/07/08 00:31:01;;;;;;;5.25;3.30;;;;;;;13.73;100.00;96722.56;1030160;28;20516;-71
2022/07/08 00:31:32;;;;;;;5.75;3.55;;;;;;;13.74;100.00;96723.34;1018258;28;20126;-70
2022/07/08 00:32:02;;;;;;;4.28;3.38;;;;;;;13.71;100.00;96724.66;1025060;28;20515;-70
2022/07/08 00:32:35;;;;;;;4.30;3.30;;;;;;;13.72;100.00;96728.91;1018531;29;20051;-72
2022/07/08 00:33:06;;;;;;;4.43;2.83;;;;;;;13.74;100.00;96733.91;1015961;28;20035;-71
2022/07/08 00:33:36;;;;;;;6.28;3.38;;;;;;;13.72;100.00;96731.53;1025981;28;20054;-71
2022/07/08 00:34:07;;;;;;;6.80;3.38;;;;;;;13.73;100.00;96727.84;1026674;28;20034;-72
2022/07/08 00:34:37;;;;;;;3.53;3.22;;;;;;;13.74;100.00;96731.25;1022250;28;20039;-71
2022/07/08 00:35:08;;;;;;;3.97;3.13;;;;;;;13.74;100.00;96732.06;1018064;29;20070;-70
2022/07/08 00:35:38;;;;;;;4.68;3.10;;;;;;;13.73;100.00;96732.31;1019956;28;20323;-71
2022/07/08 00:36:09;;;;;;;5.05;3.22;;;;;;;13.72;100.00;96730.75;1022132;29;20031;-71
2022/07/08 00:36:39;;;;;;;5.15;3.30;;;;;;;13.71;100.00;96729.94;1026625;28;20034;-70
2022/07/08 00:37:10;;;;;;;5.35;3.22;;;;;;;13.70;100.00;96728.34;1025805;28;20446;-72
2022/07/08 00:37:40;;;;;;;5.20;3.15;;;;;;;13.73;100.00;96729.69;1030150;28;20026;-71
2022/07/08 00:38:11;;;;;;;4.05;3.38;;;;;;;13.72;100.00;96728.09;1030244;28;20678;-72
2022/07/08 00:38:41;;;;;;;8.77;3.25;;;;;;;13.73;100.00;96730.47;1030188;28;20034;-71
2022/07/08 00:39:12;;;;;;;6.75;3.13;;;;;;;13.74;100.00;96734.69;1033176;28;20037;-70
2022/07/08 00:39:42;;;;;;;3.65;3.10;;;;;;;13.73;100.00;96727.06;1030278;28;20026;-71
2022/07/08 00:40:13;;;;;;;6.70;3.28;;;;;;;13.64;100.00;96724.09;1034207;28;20030;-72
2022/07/08 00:40:43;;;;;;;5.00;3.22;;;;;;;13.68;100.00;96725.16;1030221;28;20034;-71
2022/07/08 00:41:15;;;;;;;7.35;3.25;;;;;;;13.69;100.00;96726.78;1026159;28;20035;-71
2022/07/08 00:41:45;;;;;;;6.75;2.95;;;;;;;13.71;100.00;96727.28;1021321;28;20725;-71
2022/07/08 00:42:15;;;;;;;7.05;3.92;;;;;;;13.70;100.00;96728.34;1022174;28;20023;-71
2022/07/08 00:42:49;;;;;;;3.75;3.40;;;;;;;13.68;100.00;96725.16;1030187;28;20030;-71
2022/07/08 00:43:38;;;;;;;3.78;3.38;;;;;;;13.66;100.00;96722.00;1034135;28;20386;-71
2022/07/08 00:44:11;;;;;;;6.57;3.40;;;;;;;13.68;100.00;96730.44;1033206;28;20044;-71
2022/07/08 00:44:42;;;;;;;4.90;3.20;;;;;;;13.63;100.00;96718.03;1033563;28;20030;-71
2022/07/08 00:45:12;;;;;;;5.40;3.50;;;;;;;13.66;100.00;96729.94;1034380;28;20037;-71
2022/07/08 00:45:43;;;;;;;4.07;2.88;;;;;;;13.63;100.00;96733.06;1030013;28;20085;-72
2022/07/08 00:46:14;;;;;;;5.43;3.40;;;;;;;13.60;100.00;96723.81;1030135;28;20544;-71
2022/07/08 00:46:45;;;;;;;4.22;3.15;;;;;;;13.58;100.00;96725.13;1025709;28;20037;-72
2022/07/08 00:47:15;;;;;;;5.78;3.45;;;;;;;13.60;100.00;96728.31;1026096;28;20422;-70
2022/07/08 00:47:46;;;;;;;4.25;3.35;;;;;;;13.57;100.00;96731.47;1026151;28;20045;-71
2022/07/08 00:48:16;;;;;;;4.97;3.13;;;;;;;13.59;100.00;96726.72;1026365;28;20026;-71
2022/07/08 00:48:48;;;;;;;3.40;3.10;;;;;;;13.57;100.00;96726.97;1034238;28;20061;-72
2022/07/08 00:49:18;;;;;;;5.13;2.83;;;;;;;13.58;100.00;96725.94;1032465;28;20102;-71
2022/07/08 00:49:49;;;;;;;10.00;3.22;;;;;;;13.60;100.00;96723.81;1026086;28;20035;-72
2022/07/08 00:50:20;;;;;;;4.63;3.30;;;;;;;13.59;100.00;96726.72;1026194;28;20034;-71
2022/07/08 00:50:50;;;;;;;5.68;3.30;;;;;;;13.57;100.00;96724.34;1026061;28;20031;-71
2022/07/08 00:51:21;;;;;;;7.38;3.92;;;;;;;13.58;100.00;96727.75;1022203;28;20019;-72
2022/07/08 00:51:51;;;;;;;4.75;3.10;;;;;;;13.57;100.00;96728.81;1021661;28;20031;-68
2022/07/08 00:52:23;;;;;;;5.43;3.15;;;;;;;13.53;100.00;96733.03;1025948;28;20110;-71
2022/07/08 00:52:53;;;;;;;14.68;3.67;;;;;;;13.57;100.00;96726.19;1029748;28;20121;-72
2022/07/08 00:53:24;;;;;;;6.28;3.38;;;;;;;13.54;100.00;96730.13;1022393;28;20027;-72
2022/07/08 00:53:54;;;;;;;8.60;3.50;;;;;;;13.61;100.00;96735.16;1026276;28;20117;-72
2022/07/08 00:54:25;;;;;;;7.28;3.20;;;;;;;13.61;100.00;96729.88;1028099;28;20681;-72
2022/07/08 00:54:55;;;;;;;4.57;3.20;;;;;;;13.60;100.00;96729.09;1030135;28;20548;-70
2022/07/08 00:55:26;;;;;;;4.05;3.22;;;;;;;13.57;100.00;96726.97;1022170;28;20515;-71
2022/07/08 00:55:57;;;;;;;6.93;3.17;;;;;;;13.58;100.00;96725.13;1021930;29;20035;-69
2022/07/08 00:56:28;;;;;;;5.65;3.28;;;;;;;13.60;100.00;96729.09;1017867;29;20675;-71
2022/07/08 00:56:58;;;;;;;7.22;3.08;;;;;;;13.58;100.00;96728.56;1022166;28;20039;-71
2022/07/08 00:57:29;;;;;;;4.78;3.50;;;;;;;13.63;100.00;96727.78;1026243;28;20261;-71
2022/07/08 00:57:59;;;;;;;5.65;3.22;;;;;;;13.60;100.00;96729.09;1025876;28;20093;-72
2022/07/08 00:58:32;;;;;;;3.97;3.20;;;;;;;13.64;100.00;96729.38;1029984;28;20026;-70
2022/07/08 00:59:03;;;;;;;5.78;3.70;;;;;;;13.64;100.00;96730.16;1018281;29;20043;-70
2022/07/08 00:59:33;;;;;;;7.65;3.47;;;;;;;13.62;100.00;96727.00;1018402;29;20419;-72
2022/07/08 01:00:05;;;;;;;5.60;3.40;;;;;;;13.60;100.00;96728.31;1022066;29;20078;-71
2022/07/08 01:00:36;;;;;;;5.72;3.22;;;;;;;13.62;100.00;96720.94;1021849;29;20522;-71
2022/07/08 01:01:06;;;;;;;7.97;3.33;;;;;;;13.65;100.00;96720.44;1025927;28;20023;-71
2022/07/08 01:01:37;;;;;;;7.60;3.33;;;;;;;13.66;100.00;96727.28;1033684;28;20018;-69
2022/07/08 01:02:07;;;;;;;6.75;3.13;;;;;;;13.68;100.00;96725.16;1033914;28;20111;-71
2022/07/08 01:02:38;;;;;;;7.38;3.42;;;;;;;13.68;100.00;96727.81;1033815;28;20057;-71
2022/07/08 01:03:08;;;;;;;3.50;2.95;;;;;;;13.67;100.00;96731.50;1025947;28;20058;-71
2022/07/08 01:03:39;;;;;;;5.15;3.17;;;;;;;13.68;100.00;96727.81;1025990;28;20035;-72
2022/07/08 01:04:10;;;;;;;4.28;3.08;;;;;;;13.68;100.00;96725.16;1024159;28;20063;-72
2022/07/08 01:04:40;;;;;;;5.93;3.10;;;;;;;13.61;100.00;96721.97;1025391;28;20038;-70
2022/07/08 01:05:10;;;;;;;3.85;3.15;;;;;;;13.57;100.00;96713.00;1033041;28;20025;-72
2022/07/08 01:05:41;;;;;;;3.50;3.05;;;;;;;13.63;100.00;96725.16;1030233;28;20023;-71
2022/07/08 01:06:12;;;;;;;10.45;3.45;;;;;;;13.64;100.00;96730.16;1035456;28;20037;-72
2022/07/08 01:06:42;;;;;;;7.35;3.70;;;;;;;13.65;100.00;96717.78;1025923;28;20486;-70
2022/07/08 01:07:13;;;;;;;3.17;2.83;;;;;;;13.65;100.00;96725.72;1022166;28;20038;-71
2022/07/08 01:07:43;;;;;;;7.72;3.70;;;;;;;13.64;100.00;96724.09;1017873;29;20032;-70
2022/07/08 01:08:14;;;;;;;5.15;3.10;;;;;;;13.62;100.00;96726.22;1026148;28;20042;-72
2022/07/08 01:08:44;;;;;;;4.05;3.65;;;;;;;13.57;100.00;96721.69;1021927;29;20031;-70
2022/07/08 01:09:15;;;;;;;5.00;3.45;;;;;;;13.61;100.00;96724.59;1024372;28;20027;-71
2022/07/08 01:09:46;;;;;;;4.55;3.42;;;;;;;13.59;100.00;96724.09;1027458;28;20026;-72
2022/07/08 01:10:16;;;;;;;7.88;3.55;;;;;;;13.58;100.00;96719.84;1021999;29;20059;-71
2022/07/08 01:10:46;;;;;;;3.85;3.30;;;;;;;13.61;100.00;96721.97;1021929;29;20053;-71
2022/07/08 01:11:17;;;;;;;5.45;3.63;;;;;;;13.60;100.00;96717.75;1017780;29;20035;-71
2022/07/08 01:11:50;;;;;;;7.72;4.22;;;;;;;13.59;100.00;96711.69;1025347;28;20022;-70
2022/07/08 01:12:21;;;;;;;6.18;3.38;;;;;;;13.64;100.00;96729.38;1022102;29;20017;-71
2022/07/08 01:12:52;;;;;;;7.45;3.75;;;;;;;13.56;100.00;96721.97;1021839;29;20486;-72
2022/07/08 01:13:24;;;;;;;4.93;3.72;;;;;;;13.57;100.00;96723.53;1021807;29;20015;-72
2022/07/08 01:13:54;;;;;;;6.22;3.53;;;;;;;13.59;100.00;96727.53;1022246;29;20027;-71
2022/07/08 01:14:25;;;;;;;4.88;3.47;;;;;;;13.61;100.00;96725.41;1029795;28;20628;-70
2022/07/08 01:14:55;;;;;;;4.13;3.70;;;;;;;13.62;100.00;96728.84;1029949;28;20030;-71
2022/07/08 01:15:26;;;;;;;4.38;3.33;;;;;;;13.62;100.00;96720.94;1029797;28;20030;-72
2022/07/08 01:15:56;;;;;;;7.80;3.95;;;;;;;13.66;100.00;96729.94;1022125;28;20031;-71
2022/07/08 01:16:27;;;;;;;4.65;3.58;;;;;;;13.68;100.00;96733.91;1026023;28;20023;-71
2022/07/08 01:16:57;;;;;;;5.93;3.42;;;;;;;13.70;100.00;96733.63;1029936;28;20030;-71
2022/07/08 01:17:28;;;;;;;7.03;4.18;;;;;;;13.63;100.00;96717.25;1029872;28;20022;-71
2022/07/08 01:17:58;;;;;;;5.30;3.63;;;;;;;13.65;100.00;96723.84;1026489;28;20046;-70
2022/07/08 01:18:29;;;;;;;5.18;3.50;;;;;;;13.71;100.00;96734.41;1025886;28;20018;-71
2022/07/08 01:19:00;;;;;;;4.72;3.33;;;;;;;13.71;100.00;96732.56;1029803;28;20529;-71
2022/07/08 01:19:32;;;;;;;4.43;3.22;;;;;;;13.73;100.00;96738.38;1030330;28;20061;-71
2022/07/08 01:20:03;;;;;;;3.85;3.45;;;;;;;13.74;100.00;96731.25;1034298;28;20408;-71
2022/07/08 01:20:34;;;;;;;4.40;3.30;;;;;;;13.72;100.00;96726.25;1037775;28;20032;-70
2022/07/08 01:21:04;;;;;;;5.18;3.50;;;;;;;13.71;100.00;96729.94;1034008;28;20114;-70
2022/07/08 01:21:35;;;;;;;5.82;3.35;;;;;;;13.71;100.00;96735.22;1031546;28;20100;-72
2022/07/08 01:22:05;;;;;;;7.47;3.72;;;;;;;13.71;100.00;96729.94;1030022;28;20026;-71
2022/07/08 01:22:36;;;;;;;8.50;3.80;;;;;;;13.73;100.00;96733.13;1034161;28;20088;-71
2022/07/08 01:23:06;;;;;;;5.35;3.83;;;;;;;13.75;100.00;96733.66;1030010;28;20038;-70
2022/07/08 01:23:37;;;;;;;4.57;3.40;;;;;;;13.75;100.00;96730.22;1026709;28;20039;-71
2022/07/08 01:24:07;;;;;;;5.57;3.92;;;;;;;13.69;100.00;96726.78;1032235;28;20032;-70
2022/07/08 01:24:38;;;;;;;6.38;3.90;;;;;;;13.74;100.00;96728.63;1026246;28;20035;-71
2022/07/08 01:25:09;;;;;;;5.25;3.65;;;;;;;13.72;100.00;96728.91;1026018;28;20498;-72
2022/07/08 01:25:39;;;;;;;5.10;3.70;;;;;;;13.79;100.00;96731.31;1025681;28;20050;-70
2022/07/08 01:26:12;;;;;;;4.70;3.70;;;;;;;13.80;100.00;96733.66;1022678;28;20054;-71
2022/07/08 01:26:42;;;;;;;8.13;4.18;;;;;;;13.79;100.00;96737.38;1022879;29;20039;-71
2022/07/08 01:27:12;;;;;;;6.22;3.22;;;;;;;13.75;100.00;96736.31;1026004;28;20028;-70
2022/07/08 01:27:43;;;;;;;4.90;3.67;;;;;;;13.75;100.00;96736.31;1027162;28;20026;-71
2022/07/08 01:28:16;;;;;;;4.30;3.70;;;;;;;13.78;100.00;96730.50;1031385;28;20053;-70
2022/07/08 01:28:47;;;;;;;5.03;3.50;;;;;;;13.79;100.00;96732.09;1035450;28;20017;-71
2022/07/08 01:29:18;;;;;;;5.55;3.70;;;;;;;13.76;100.00;96726.53;1031846;28;20053;-71
2022/07/08 01:29:48;;;;;;;5.20;3.55;;;;;;;13.82;100.00;96730.78;1034665;28;20026;-71
2022/07/08 01:30:18;;;;;;;6.72;3.30;;;;;;;13.82;100.00;96734.22;1027338;28;20049;-70
2022/07/08 01:30:49;;;;;;;6.40;3.55;;;;;;;13.84;100.00;96729.44;1027390;28;20022;-71
2022/07/08 01:31:22;;;;;;;6.03;3.45;;;;;;;13.85;100.00;96735.53;1023500;29;20490;-71
2022/07/08 01:31:53;;;;;;;5.28;3.40;;;;;;;13.83;100.00;96737.63;1022938;28;20027;-72
2022/07/08 01:32:29;;;;;;;5.30;3.10;;;;;;;13.83;100.00;96735.78;1030126;28;20026;-71
2022/07/08 01:32:59;;;;;;;6.35;4.45;;;;;;;13.83;100.00;96738.44;1028677;28;20022;-71
2022/07/08 01:33:29;;;;;;;6.88;3.42;;;;;;;13.78;100.00;96729.69;1027909;28;20031;-70
2022/07/08 01:34:00;;;;;;;6.38;3.60;;;;;;;13.82;100.00;96739.50;1026972;28;20069;-71
2022/07/08 01:34:30;;;;;;;5.80;3.53;;;;;;;13.81;100.00;96732.59;1027268;28;20469;-72
2022/07/08 01:35:01;;;;;;;4.30;3.20;;;;;;;13.81;100.00;96737.09;1031353;28;20026;-71
2022/07/08 01:35:32;;;;;;;7.07;3.60;;;;;;;13.82;100.00;96738.69;1034533;28;20484;-71
2022/07/08 01:36:02;;;;;;;4.63;3.15;;;;;;;13.79;100.00;96732.09;1035155;28;20509;-71
2022/07/08 01:36:33;;;;;;;8.55;3.75;;;;;;;13.77;100.00;96734.19;1035301;28;20547;-71
2022/07/08 01:37:03;;;;;;;6.88;3.60;;;;;;;13.80;100.00;96741.56;1031493;28;20073;-71
2022/07/08 01:37:34;;;;;;;3.85;3.53;;;;;;;13.81;100.00;96745.78;1027037;28;20132;-70
2022/07/08 01:38:05;;;;;;;4.53;3.45;;;;;;;13.81;100.00;96740.53;1027503;28;20592;-72
2022/07/08 01:38:36;;;;;;;5.50;3.45;;;;;;;13.82;100.00;96744.75;1027408;28;20550;-70
2022/07/08 01:39:07;;;;;;;4.90;3.55;;;;;;;13.80;100.00;96749.50;1033842;28;20061;-70
2022/07/08 01:39:37;;;;;;;7.55;3.83;;;;;;;13.79;100.00;96742.63;1035523;28;20037;-71
2022/07/08 01:40:08;;;;;;;7.00;3.50;;;;;;;13.78;100.00;96748.16;1035281;28;20014;-71
2022/07/08 01:40:39;;;;;;;4.88;3.60;;;;;;;13.68;100.00;96739.16;1031039;28;20540;-72
2022/07/08 01:41:09;;;;;;;4.30;3.42;;;;;;;13.78;100.00;96754.25;1031464;28;20038;-70
2022/07/08 01:41:40;;;;;;;7.47;3.47;;;;;;;13.75;100.00;96757.41;1034765;28;20529;-71
2022/07/08 01:42:10;;;;;;;8.82;3.53;;;;;;;13.75;100.00;96754.75;1031159;28;20405;-69
2022/07/08 01:42:41;;;;;;;6.97;3.58;;;;;;;13.74;100.00;96752.38;1026815;28;20038;-71
2022/07/08 01:43:11;;;;;;;7.50;3.47;;;;;;;13.72;100.00;96757.13;1023297;29;20108;-71
2022/07/08 01:43:41;;;;;;;7.07;3.75;;;;;;;13.71;100.00;96758.94;1023702;29;20035;-72
2022/07/08 01:44:12;;;;;;;4.47;3.42;;;;;;;13.68;100.00;96756.81;1026179;28;20085;-72
2022/07/08 01:44:42;;;;;;;5.88;3.50;;;;;;;13.67;100.00;96760.50;1019452;29;20589;-71
2022/07/08 01:45:14;;;;;;;9.52;3.53;;;;;;;13.67;100.00;96760.50;1019344;29;20031;-71
2022/07/08 01:45:44;;;;;;;5.35;3.28;;;;;;;13.66;100.00;96764.22;1024204;28;20027;-71
2022/07/08 01:46:15;;;;;;;6.63;3.55;;;;;;;13.64;100.00;96761.81;1027249;28;20046;-70
2022/07/08 01:46:45;;;;;;;5.47;3.20;;;;;;;13.66;100.00;96766.84;1023274;28;20027;-71
2022/07/08 01:47:16;;;;;;;3.53;2.67;;;;;;;13.62;100.00;96768.41;1028853;28;20126;-71
2022/07/08 01:47:46;;;;;;;7.43;4.13;;;;;;;13.62;100.00;96763.13;1035247;28;20034;-70
2022/07/08 01:48:17;;;;;;;2.53;2.33;;;;;;;13.62;100.00;96760.50;1031333;28;20105;-71
2022/07/08 01:48:47;;;;;;;5.43;2.50;;;;;;;13.60;100.00;96760.75;1031160;28;20109;-72
2022/07/08 01:49:18;;;;;;;4.70;2.33;;;;;;;13.63;100.00;96764.72;1021612;28;20032;-72
2022/07/08 01:49:48;;;;;;;3.92;2.70;;;;;;;13.61;100.00;96766.81;1023305;29;20628;-71
2022/07/08 01:50:19;;;;;;;3.53;2.05;;;;;;;13.59;100.00;96755.75;1023340;28;20038;-72
2022/07/08 01:50:49;;;;;;;3.72;2.35;;;;;;;13.58;100.00;96759.41;1020179;28;20034;-71
2022/07/08 01:51:20;;;;;;;5.72;2.00;;;;;;;13.60;100.00;96758.09;1019191;29;20031;-71
2022/07/08 01:51:50;;;;;;;5.38;2.17;;;;;;;13.56;100.00;96757.03;1019068;29;20059;-69
2022/07/08 01:52:21;;;;;;;4.68;2.00;;;;;;;13.58;100.00;96760.22;1023204;29;20103;-71
2022/07/08 01:52:51;;;;;;;5.97;1.70;;;;;;;13.54;100.00;96756.50;1030665;28;20030;-71
2022/07/08 01:53:22;;;;;;;5.38;1.83;;;;;;;13.58;100.00;96757.59;1031398;28;20081;-70
2022/07/08 01:53:52;;;;;;;2.38;1.85;;;;;;;13.56;100.00;96756.25;1023335;29;20031;-71
2022/07/08 01:54:23;;;;;;;4.57;2.20;;;;;;;13.55;100.00;96757.31;1020482;29;20159;-71
2022/07/08 01:54:53;;;;;;;3.92;1.85;;;;;;;13.51;100.00;96762.28;1023740;28;20049;-72
2022/07/08 01:55:23;;;;;;;5.45;1.80;;;;;;;13.52;100.00;96752.53;1027526;28;20031;-72
2022/07/08 01:55:54;;;;;;;6.15;2.10;;;;;;;13.52;100.00;96763.09;1028293;28;20089;-71
2022/07/08 01:56:24;;;;;;;5.80;1.90;;;;;;;13.49;100.00;96759.13;1035384;28;20468;-71
2022/07/08 01:57:13;;;;;;;3.70;1.70;;;;;;;13.43;100.00;96739.81;1031345;28;20026;-71
2022/07/08 01:57:44;;;;;;;6.82;2.20;;;;;;;13.43;100.00;96753.00;1035379;28;20022;-72
2022/07/08 01:58:14;;;;;;;3.47;2.05;;;;;;;13.44;100.00;96757.22;1027076;28;20908;-71
2022/07/08 01:58:45;;;;;;;3.63;1.70;;;;;;;13.46;100.00;96761.47;1023503;29;20070;-71
2022/07/08 01:59:15;;;;;;;4.03;1.90;;;;;;;13.47;100.00;96760.41;1023076;28;20027;-71
2022/07/08 01:59:46;;;;;;;3.50;1.63;;;;;;;13.44;100.00;96762.50;1015563;29;20100;-71
2022/07/08 02:00:17;;;;;;;4.32;2.47;;;;;;;13.46;100.00;96758.84;1019586;29;20027;-71
2022/07/08 02:00:47;;;;;;;3.45;1.88;;;;;;;13.48;100.00;96762.00;1023282;29;20039;-71
2022/07/08 02:01:18;;;;;;;5.57;1.50;;;;;;;13.46;100.00;96761.47;1022230;28;20034;-72
2022/07/08 02:01:48;;;;;;;4.15;1.73;;;;;;;13.48;100.00;96762.00;1022911;28;20701;-71
2022/07/08 02:02:20;;;;;;;8.25;1.98;;;;;;;13.42;100.00;96756.69;1023062;28;20458;-71
2022/07/08 02:02:50;;;;;;;4.35;2.00;;;;;;;13.41;100.00;96756.94;1021148;28;20027;-71
2022/07/08 02:03:21;;;;;;;5.00;1.70;;;;;;;13.43;100.00;96765.41;1023193;29;20070;-72
2022/07/08 02:03:51;;;;;;;4.90;1.80;;;;;;;13.43;100.00;96763.56;1023267;29;20035;-71
2022/07/08 02:04:22;;;;;;;2.75;1.80;;;;;;;13.43;100.00;96760.91;1023212;28;20031;-72
2022/07/08 02:04:52;;;;;;;4.63;1.70;;;;;;;13.47;100.00;96768.31;1023435;28;20042;-71
2022/07/08 02:05:23;;;;;;;4.55;1.80;;;;;;;13.40;100.00;96761.44;1027379;28;20408;-73
2022/07/08 02:05:53;;;;;;;6.20;1.80;;;;;;;13.47;100.00;96773.59;1031381;28;20036;-71
2022/07/08 02:06:24;;;;;;;7.53;2.05;;;;;;;13.46;100.00;96772.00;1022837;28;20027;-72
2022/07/08 02:06:54;;;;;;;4.75;1.98;;;;;;;13.42;100.00;96775.16;1027493;28;20214;-71
2022/07/08 02:07:25;;;;;;;5.85;1.63;;;;;;;13.38;100.00;96768.81;1023155;29;20039;-71
2022/07/08 02:07:55;;;;;;;3.90;2.30;;;;;;;13.39;100.00;96767.75;1022959;28;20441;-72
2022/07/08 02:08:26;;;;;;;6.30;1.77;;;;;;;13.39;100.00;96769.59;1023316;29;20578;-71
2022/07/08 02:08:56;;;;;;;3.38;1.77;;;;;;;13.36;100.00;96775.38;1026440;28;20053;-69
2022/07/08 02:09:27;;;;;;;3.85;1.65;;;;;;;13.38;100.00;96774.09;1022341;28;20038;-71
2022/07/08 02:09:57;;;;;;;2.92;1.70;;;;;;;13.36;100.00;96776.16;1027445;28;20034;-71
2022/07/08 02:10:28;;;;;;;6.05;1.80;;;;;;;13.38;100.00;96774.09;1027260;28;20478;-72
2022/07/08 02:12:37;;;;;;;6.38;2.05;;;;;;;13.37;100.00;96777.75;1032468;28;20061;-71
2022/07/08 02:13:07;;;;;;;5.80;1.83;;;;;;;13.37;100.00;96776.97;1031882;28;20659;-72
2022/07/08 02:13:38;;;;;;;4.10;1.65;;;;;;;13.34;100.00;96777.47;1027247;28;20035;-72
2022/07/08 02:14:08;;;;;;;2.90;1.30;;;;;;;13.36;100.00;96775.38;1027171;28;20042;-71
2022/07/08 02:14:39;;;;;;;6.40;2.03;;;;;;;13.34;100.00;96783.53;1024538;28;20416;-72
2022/07/08 02:15:09;;;;;;;4.68;1.80;;;;;;;13.34;100.00;96780.88;1031450;28;20030;-72
2022/07/08 02:15:40;;;;;;;4.28;1.85;;;;;;;13.34;100.00;96780.09;1027093;28;20474;-72
2022/07/08 02:16:10;;;;;;;4.45;1.83;;;;;;;13.31;100.00;96778.78;1027100;28;20058;-72
2022/07/08 02:16:40;;;;;;;5.05;2.10;;;;;;;13.32;100.00;96779.56;1030853;28;20031;-71
2022/07/08 02:17:11;;;;;;;5.72;2.08;;;;;;;13.30;100.00;96782.44;1031284;28;20518;-71
2022/07/08 02:17:42;;;;;;;7.32;1.67;;;;;;;13.26;100.00;96781.38;1031198;28;20068;-71
2022/07/08 02:18:12;;;;;;;8.13;1.90;;;;;;;13.25;100.00;96782.44;1031112;28;20030;-71
2022/07/08 02:18:43;;;;;;;6.60;2.17;;;;;;;13.25;100.00;96785.06;1031302;28;20093;-71
2022/07/08 02:19:13;;;;;;;4.90;1.60;;;;;;;13.22;100.00;96777.63;1023572;29;20039;-72
2022/07/08 02:19:44;;;;;;;5.18;1.55;;;;;;;13.22;100.00;96785.53;1019915;29;20088;-72
2022/07/08 02:20:15;;;;;;;5.05;1.55;;;;;;;13.23;100.00;96784.50;1023153;29;20030;-71
2022/07/08 02:20:45;;;;;;;5.53;1.80;;;;;;;13.22;100.00;96777.63;1023349;29;20042;-71
2022/07/08 02:21:18;;;;;;;6.90;2.05;;;;;;;13.22;100.00;96782.91;1023789;28;20672;-73
2022/07/08 02:21:49;;;;;;;6.95;1.80;;;;;;;13.22;100.00;96777.63;1026814;28;20066;-70
2022/07/08 02:22:19;;;;;;;6.18;1.85;;;;;;;13.23;100.00;96781.06;1027498;28;20570;-69
2022/07/08 02:22:49;;;;;;;4.28;1.60;;;;;;;13.11;100.00;96762.78;1031347;28;20053;-71
2022/07/08 02:23:20;;;;;;;4.40;1.70;;;;;;;13.23;100.00;96781.06;1031515;28;20037;-72
2022/07/08 02:23:50;;;;;;;3.92;1.80;;;;;;;13.21;100.00;96778.66;1028356;28;20811;-71
2022/07/08 02:24:21;;;;;;;3.85;1.60;;;;;;;13.23;100.00;96781.06;1031507;28;20121;-71
2022/07/08 02:24:52;;;;;;;3.08;1.77;;;;;;;13.21;100.00;96782.13;1027449;28;20038;-71